Decoded Metar for LFMI (ISTRES in FRANCE) (IATA:N/A) | Meteo·Mobile Aviation Weather
aviador You're here:

LFMI Decoded Metar

ISTRES in FRANCE
Report Time2019-07-21 16:30:00
UTC Time2019-07-21 16:55:24
Flight Rules vfr VFR
Wind200° at 10 kt
W.Decomp.*RWY 15: 6.4 kt HW 7.7 kt RCW
Visibility9999 m
Phenomena:N/A
Clouds:N/A
Expected CloudBase > 7,600 ft AGL from Temp-Dew spread
CeilingNone
Temp32°C (ISA +17)
Dew Point13°C (31% RH)
Heat Index30.9°C
AAT29.2°C
QNH1019 hPa
Density Alt2,041 ft
Elevation79 ft
Report Wrong Elevation
Raw Report
LFMI 211630Z AUTO 20010KT CAVOK 32/13 Q1019 NOSIG=

Extra information for LFMI:More info

Metar Taf Metar & Taf Last 4 Metars F.Rules Stats Wind Profile Meteogram Temp Stats Airport Information Weather charts Add Link Nearby VenuesMetar ALERT Operation Metar Decoded Social comments